sensor_id;sensor_type;location;lat;lon;timestamp;temperature;humidity
70294;DHT22;74367;35.280;-77.632;2024-02-26T00:01:55;9.29;69.10
70294;DHT22;74367;35.280;-77.632;2024-02-26T00:04:21;9.05;69.42
70294;DHT22;74367;35.280;-77.632;2024-02-26T00:06:47;9.08;70.05
70294;DHT22;74367;35.280;-77.632;2024-02-26T00:09:16;8.98;70.21
70294;DHT22;74367;35.280;-77.632;2024-02-26T00:11:41;8.84;71.33
70294;DHT22;74367;35.280;-77.632;2024-02-26T00:14:07;8.78;71.11
70294;DHT22;74367;35.280;-77.632;2024-02-26T00:16:34;8.77;71.60
70294;DHT22;74367;35.280;-77.632;2024-02-26T00:19:00;8.81;70.59
70294;DHT22;74367;35.280;-77.632;2024-02-26T00:21:28;8.85;70.91
70294;DHT22;74367;35.280;-77.632;2024-02-26T00:23:54;8.85;70.26
70294;DHT22;74367;35.280;-77.632;2024-02-26T00:26:20;8.59;72.26
70294;DHT22;74367;35.280;-77.632;2024-02-26T00:28:46;8.50;72.56
70294;DHT22;74367;35.280;-77.632;2024-02-26T00:31:12;8.40;72.35
70294;DHT22;74367;35.280;-77.632;2024-02-26T00:33:38;8.46;72.43
70294;DHT22;74367;35.280;-77.632;2024-02-26T00:36:05;8.43;72.26
70294;DHT22;74367;35.280;-77.632;2024-02-26T00:38:31;8.21;72.55
70294;DHT22;74367;35.280;-77.632;2024-02-26T00:40:56;8.25;72.23
70294;DHT22;74367;35.280;-77.632;2024-02-26T00:43:22;8.36;72.36
70294;DHT22;74367;35.280;-77.632;2024-02-26T00:45:49;8.36;71.98
70294;DHT22;74367;35.280;-77.632;2024-02-26T00:48:15;8.37;72.07
70294;DHT22;74367;35.280;-77.632;2024-02-26T00:50:43;8.40;72.49
70294;DHT22;74367;35.280;-77.632;2024-02-26T00:53:09;8.23;72.57
70294;DHT22;74367;35.280;-77.632;2024-02-26T00:55:35;8.19;72.64
70294;DHT22;74367;35.280;-77.632;2024-02-26T00:58:01;8.10;72.81
70294;DHT22;74367;35.280;-77.632;2024-02-26T01:00:27;8.05;73.30
70294;DHT22;74367;35.280;-77.632;2024-02-26T01:02:53;8.05;72.85
70294;DHT22;74367;35.280;-77.632;2024-02-26T01:05:19;8.16;73.01
70294;DHT22;74367;35.280;-77.632;2024-02-26T01:07:45;8.25;73.47
70294;DHT22;74367;35.280;-77.632;2024-02-26T01:10:11;8.30;73.14
70294;DHT22;74367;35.280;-77.632;2024-02-26T01:12:37;8.40;73.91
70294;DHT22;74367;35.280;-77.632;2024-02-26T01:15:03;8.44;73.19
70294;DHT22;74367;35.280;-77.632;2024-02-26T01:17:30;7.61;75.19
70294;DHT22;74367;35.280;-77.632;2024-02-26T01:19:56;7.64;76.47
70294;DHT22;74367;35.280;-77.632;2024-02-26T01:22:22;7.89;76.93
70294;DHT22;74367;35.280;-77.632;2024-02-26T01:24:48;8.12;76.20
70294;DHT22;74367;35.280;-77.632;2024-02-26T01:27:14;8.14;74.47
70294;DHT22;74367;35.280;-77.632;2024-02-26T01:29:41;8.13;74.98
70294;DHT22;74367;35.280;-77.632;2024-02-26T01:32:07;8.21;75.40
70294;DHT22;74367;35.280;-77.632;2024-02-26T01:34:33;7.96;75.60
70294;DHT22;74367;35.280;-77.632;2024-02-26T01:37:00;7.89;76.58
70294;DHT22;74367;35.280;-77.632;2024-02-26T01:39:26;8.03;75.93
70294;DHT22;74367;35.280;-77.632;2024-02-26T01:41:54;8.19;75.21
70294;DHT22;74367;35.280;-77.632;2024-02-26T01:44:21;8.23;74.88
70294;DHT22;74367;35.280;-77.632;2024-02-26T01:46:48;8.23;74.59
70294;DHT22;74367;35.280;-77.632;2024-02-26T01:49:14;8.26;75.91
70294;DHT22;74367;35.280;-77.632;2024-02-26T01:51:42;7.54;76.22
70294;DHT22;74367;35.280;-77.632;2024-02-26T01:54:09;7.31;76.93
70294;DHT22;74367;35.280;-77.632;2024-02-26T01:56:36;6.96;77.85
70294;DHT22;74367;35.280;-77.632;2024-02-26T01:59:03;6.82;78.62
70294;DHT22;74367;35.280;-77.632;2024-02-26T02:01:32;6.83;78.52
70294;DHT22;74367;35.280;-77.632;2024-02-26T02:03:59;6.82;78.28
70294;DHT22;74367;35.280;-77.632;2024-02-26T02:06:25;6.78;78.52
70294;DHT22;74367;35.280;-77.632;2024-02-26T02:08:52;6.78;78.01
70294;DHT22;74367;35.280;-77.632;2024-02-26T02:11:19;6.92;78.59
70294;DHT22;74367;35.280;-77.632;2024-02-26T02:13:45;6.92;78.53
70294;DHT22;74367;35.280;-77.632;2024-02-26T02:16:12;7.06;78.90
70294;DHT22;74367;35.280;-77.632;2024-02-26T02:18:38;7.14;78.13
70294;DHT22;74367;35.280;-77.632;2024-02-26T02:21:04;6.96;78.52
70294;DHT22;74367;35.280;-77.632;2024-02-26T02:23:30;6.75;78.20
70294;DHT22;74367;35.280;-77.632;2024-02-26T02:25:57;6.93;79.37
70294;DHT22;74367;35.280;-77.632;2024-02-26T02:28:26;7.07;78.99
70294;DHT22;74367;35.280;-77.632;2024-02-26T02:30:52;6.85;78.40
70294;DHT22;74367;35.280;-77.632;2024-02-26T02:33:18;6.91;79.35
70294;DHT22;74367;35.280;-77.632;2024-02-26T02:35:44;6.62;79.08
70294;DHT22;74367;35.280;-77.632;2024-02-26T02:38:11;6.99;79.40
70294;DHT22;74367;35.280;-77.632;2024-02-26T02:40:37;7.06;79.26
70294;DHT22;74367;35.280;-77.632;2024-02-26T02:43:03;7.09;78.87
70294;DHT22;74367;35.280;-77.632;2024-02-26T02:45:30;6.78;79.48
70294;DHT22;74367;35.280;-77.632;2024-02-26T02:47:56;6.52;79.97
70294;DHT22;74367;35.280;-77.632;2024-02-26T02:50:22;6.62;80.57
70294;DHT22;74367;35.280;-77.632;2024-02-26T02:52:48;6.81;80.27
70294;DHT22;74367;35.280;-77.632;2024-02-26T02:55:16;6.86;81.08
70294;DHT22;74367;35.280;-77.632;2024-02-26T02:57:42;6.48;82.06
70294;DHT22;74367;35.280;-77.632;2024-02-26T03:00:10;6.42;82.52
70294;DHT22;74367;35.280;-77.632;2024-02-26T03:02:36;6.48;82.22
70294;DHT22;74367;35.280;-77.632;2024-02-26T03:05:05;6.58;82.44
70294;DHT22;74367;35.280;-77.632;2024-02-26T03:07:32;6.67;81.97
70294;DHT22;74367;35.280;-77.632;2024-02-26T03:09:59;7.07;81.14
70294;DHT22;74367;35.280;-77.632;2024-02-26T03:12:26;7.30;80.79
70294;DHT22;74367;35.280;-77.632;2024-02-26T03:14:53;7.38;79.76
70294;DHT22;74367;35.280;-77.632;2024-02-26T03:17:20;7.38;79.61
70294;DHT22;74367;35.280;-77.632;2024-02-26T03:19:46;7.41;78.42
70294;DHT22;74367;35.280;-77.632;2024-02-26T03:22:13;7.43;78.79
70294;DHT22;74367;35.280;-77.632;2024-02-26T03:24:41;7.53;78.33
70294;DHT22;74367;35.280;-77.632;2024-02-26T03:27:10;7.46;77.62
70294;DHT22;74367;35.280;-77.632;2024-02-26T03:29:37;7.40;77.90
70294;DHT22;74367;35.280;-77.632;2024-02-26T03:32:04;7.44;77.27
70294;DHT22;74367;35.280;-77.632;2024-02-26T03:34:30;7.40;77.57
70294;DHT22;74367;35.280;-77.632;2024-02-26T03:36:56;7.20;77.16
70294;DHT22;74367;35.280;-77.632;2024-02-26T03:39:22;7.07;77.71
70294;DHT22;74367;35.280;-77.632;2024-02-26T03:41:48;7.17;77.84
70294;DHT22;74367;35.280;-77.632;2024-02-26T03:44:14;7.12;77.90
70294;DHT22;74367;35.280;-77.632;2024-02-26T03:46:40;6.97;78.12
70294;DHT22;74367;35.280;-77.632;2024-02-26T03:49:10;7.17;78.25
70294;DHT22;74367;35.280;-77.632;2024-02-26T03:51:37;7.27;78.14
70294;DHT22;74367;35.280;-77.632;2024-02-26T03:54:03;7.31;78.79
70294;DHT22;74367;35.280;-77.632;2024-02-26T03:56:29;7.20;77.25
70294;DHT22;74367;35.280;-77.632;2024-02-26T03:58:55;7.00;77.31
70294;DHT22;74367;35.280;-77.632;2024-02-26T04:01:21;7.10;79.10
70294;DHT22;74367;35.280;-77.632;2024-02-26T04:03:47;6.91;79.45
70294;DHT22;74367;35.280;-77.632;2024-02-26T04:06:13;7.10;80.76
70294;DHT22;74367;35.280;-77.632;2024-02-26T04:08:45;6.81;80.02
70294;DHT22;74367;35.280;-77.632;2024-02-26T04:11:11;6.27;82.09
70294;DHT22;74367;35.280;-77.632;2024-02-26T04:13:38;6.16;81.81
70294;DHT22;74367;35.280;-77.632;2024-02-26T04:16:06;6.51;80.18
70294;DHT22;74367;35.280;-77.632;2024-02-26T04:18:32;6.75;78.70
70294;DHT22;74367;35.280;-77.632;2024-02-26T04:20:58;6.18;80.22
70294;DHT22;74367;35.280;-77.632;2024-02-26T04:23:25;5.99;81.01
70294;DHT22;74367;35.280;-77.632;2024-02-26T04:25:50;5.52;82.80
70294;DHT22;74367;35.280;-77.632;2024-02-26T04:28:19;5.72;83.14
70294;DHT22;74367;35.280;-77.632;2024-02-26T04:30:47;6.13;82.01
70294;DHT22;74367;35.280;-77.632;2024-02-26T04:33:14;6.51;80.45
70294;DHT22;74367;35.280;-77.632;2024-02-26T04:35:40;6.40;80.66
70294;DHT22;74367;35.280;-77.632;2024-02-26T04:38:06;6.14;81.04
70294;DHT22;74367;35.280;-77.632;2024-02-26T04:40:31;6.35;82.46
70294;DHT22;74367;35.280;-77.632;2024-02-26T04:42:57;6.54;81.85
70294;DHT22;74367;35.280;-77.632;2024-02-26T04:45:23;6.30;80.33
70294;DHT22;74367;35.280;-77.632;2024-02-26T04:47:49;6.54;80.90
70294;DHT22;74367;35.280;-77.632;2024-02-26T04:50:15;6.31;81.03
70294;DHT22;74367;35.280;-77.632;2024-02-26T04:52:42;5.90;81.93
70294;DHT22;74367;35.280;-77.632;2024-02-26T04:55:08;5.63;82.41
70294;DHT22;74367;35.280;-77.632;2024-02-26T04:57:34;5.79;82.83
70294;DHT22;74367;35.280;-77.632;2024-02-26T05:00:00;5.85;82.09
70294;DHT22;74367;35.280;-77.632;2024-02-26T05:02:26;5.89;82.47
70294;DHT22;74367;35.280;-77.632;2024-02-26T05:04:52;6.03;82.50
70294;DHT22;74367;35.280;-77.632;2024-02-26T05:07:18;6.10;82.69
70294;DHT22;74367;35.280;-77.632;2024-02-26T05:09:44;5.92;81.31
70294;DHT22;74367;35.280;-77.632;2024-02-26T05:12:10;6.17;81.47
70294;DHT22;74367;35.280;-77.632;2024-02-26T05:14:36;6.03;81.77
70294;DHT22;74367;35.280;-77.632;2024-02-26T05:17:02;5.72;82.66
70294;DHT22;74367;35.280;-77.632;2024-02-26T05:19:29;5.51;83.30
70294;DHT22;74367;35.280;-77.632;2024-02-26T05:21:54;5.41;83.99
70294;DHT22;74367;35.280;-77.632;2024-02-26T05:24:20;5.52;84.93
70294;DHT22;74367;35.280;-77.632;2024-02-26T05:26:48;6.03;84.03
70294;DHT22;74367;35.280;-77.632;2024-02-26T05:29:14;6.27;82.43
70294;DHT22;74367;35.280;-77.632;2024-02-26T05:31:42;6.42;81.49
70294;DHT22;74367;35.280;-77.632;2024-02-26T05:34:08;6.40;81.75
70294;DHT22;74367;35.280;-77.632;2024-02-26T05:36:34;5.85;82.57
70294;DHT22;74367;35.280;-77.632;2024-02-26T05:39:01;5.35;83.87
70294;DHT22;74367;35.280;-77.632;2024-02-26T05:41:27;5.55;83.53
70294;DHT22;74367;35.280;-77.632;2024-02-26T05:43:53;5.45;83.67
70294;DHT22;74367;35.280;-77.632;2024-02-26T05:46:20;5.59;84.70
70294;DHT22;74367;35.280;-77.632;2024-02-26T05:48:48;5.87;83.66
70294;DHT22;74367;35.280;-77.632;2024-02-26T05:51:15;6.11;83.61
70294;DHT22;74367;35.280;-77.632;2024-02-26T05:53:41;5.83;83.69
70294;DHT22;74367;35.280;-77.632;2024-02-26T05:56:07;5.82;83.63
70294;DHT22;74367;35.280;-77.632;2024-02-26T05:58:33;5.73;84.73
70294;DHT22;74367;35.280;-77.632;2024-02-26T06:00:59;6.00;83.69
70294;DHT22;74367;35.280;-77.632;2024-02-26T06:03:26;6.21;82.70
70294;DHT22;74367;35.280;-77.632;2024-02-26T06:05:52;6.34;82.62
70294;DHT22;74367;35.280;-77.632;2024-02-26T06:08:18;6.45;83.60
70294;DHT22;74367;35.280;-77.632;2024-02-26T06:10:47;6.42;82.80
70294;DHT22;74367;35.280;-77.632;2024-02-26T06:13:13;6.23;82.53
70294;DHT22;74367;35.280;-77.632;2024-02-26T06:15:39;6.10;82.80
70294;DHT22;74367;35.280;-77.632;2024-02-26T06:18:05;6.20;83.29
70294;DHT22;74367;35.280;-77.632;2024-02-26T06:20:31;6.34;82.93
70294;DHT22;74367;35.280;-77.632;2024-02-26T06:22:57;6.41;81.93
70294;DHT22;74367;35.280;-77.632;2024-02-26T06:25:23;6.41;81.95
70294;DHT22;74367;35.280;-77.632;2024-02-26T06:27:49;5.70;82.99
70294;DHT22;74367;35.280;-77.632;2024-02-26T06:30:16;5.69;84.16
70294;DHT22;74367;35.280;-77.632;2024-02-26T06:32:42;5.96;83.79
70294;DHT22;74367;35.280;-77.632;2024-02-26T06:35:09;6.20;83.58
70294;DHT22;74367;35.280;-77.632;2024-02-26T06:37:37;6.24;82.61
70294;DHT22;74367;35.280;-77.632;2024-02-26T06:40:03;6.38;82.09
70294;DHT22;74367;35.280;-77.632;2024-02-26T06:42:30;6.30;82.92
70294;DHT22;74367;35.280;-77.632;2024-02-26T06:44:56;6.40;83.46
70294;DHT22;74367;35.280;-77.632;2024-02-26T06:47:22;6.28;81.81
70294;DHT22;74367;35.280;-77.632;2024-02-26T06:49:48;6.06;82.03
70294;DHT22;74367;35.280;-77.632;2024-02-26T06:52:14;6.07;83.57
70294;DHT22;74367;35.280;-77.632;2024-02-26T06:54:40;5.90;85.01
70294;DHT22;74367;35.280;-77.632;2024-02-26T06:57:07;6.13;83.57
70294;DHT22;74367;35.280;-77.632;2024-02-26T06:59:33;6.24;84.48
70294;DHT22;74367;35.280;-77.632;2024-02-26T07:01:59;6.40;83.37
70294;DHT22;74367;35.280;-77.632;2024-02-26T07:04:25;6.16;82.86
70294;DHT22;74367;35.280;-77.632;2024-02-26T07:06:50;5.69;84.11
70294;DHT22;74367;35.280;-77.632;2024-02-26T07:09:16;5.86;85.13
70294;DHT22;74367;35.280;-77.632;2024-02-26T07:11:42;6.13;84.14
70294;DHT22;74367;35.280;-77.632;2024-02-26T07:14:09;6.33;83.92
70294;DHT22;74367;35.280;-77.632;2024-02-26T07:16:36;6.41;83.63
70294;DHT22;74367;35.280;-77.632;2024-02-26T07:19:03;6.51;84.22
70294;DHT22;74367;35.280;-77.632;2024-02-26T07:21:29;6.27;84.67
70294;DHT22;74367;35.280;-77.632;2024-02-26T07:23:54;6.40;83.97
70294;DHT22;74367;35.280;-77.632;2024-02-26T07:26:20;6.40;83.65
70294;DHT22;74367;35.280;-77.632;2024-02-26T07:28:46;6.37;83.55
70294;DHT22;74367;35.280;-77.632;2024-02-26T07:31:12;6.37;83.17
70294;DHT22;74367;35.280;-77.632;2024-02-26T07:33:39;5.99;84.09
70294;DHT22;74367;35.280;-77.632;2024-02-26T07:36:05;5.63;85.29
70294;DHT22;74367;35.280;-77.632;2024-02-26T07:38:31;5.39;86.45
70294;DHT22;74367;35.280;-77.632;2024-02-26T07:40:57;5.58;86.46
70294;DHT22;74367;35.280;-77.632;2024-02-26T07:43:23;5.92;86.48
70294;DHT22;74367;35.280;-77.632;2024-02-26T07:45:49;5.85;85.42
70294;DHT22;74367;35.280;-77.632;2024-02-26T07:48:15;5.65;85.34
70294;DHT22;74367;35.280;-77.632;2024-02-26T07:50:41;5.89;85.44
70294;DHT22;74367;35.280;-77.632;2024-02-26T07:53:07;6.06;84.90
70294;DHT22;74367;35.280;-77.632;2024-02-26T07:55:33;6.18;84.61
70294;DHT22;74367;35.280;-77.632;2024-02-26T07:57:59;6.24;84.13
70294;DHT22;74367;35.280;-77.632;2024-02-26T08:00:25;5.89;85.32
70294;DHT22;74367;35.280;-77.632;2024-02-26T08:02:51;5.54;86.10
70294;DHT22;74367;35.280;-77.632;2024-02-26T08:05:17;5.55;86.48
70294;DHT22;74367;35.280;-77.632;2024-02-26T08:07:44;5.58;86.89
70294;DHT22;74367;35.280;-77.632;2024-02-26T08:10:10;5.52;86.83
70294;DHT22;74367;35.280;-77.632;2024-02-26T08:12:39;5.73;86.38
70294;DHT22;74367;35.280;-77.632;2024-02-26T08:15:05;5.77;86.08
70294;DHT22;74367;35.280;-77.632;2024-02-26T08:17:31;5.72;86.04
70294;DHT22;74367;35.280;-77.632;2024-02-26T08:19:59;5.87;86.03
70294;DHT22;74367;35.280;-77.632;2024-02-26T08:22:25;5.97;84.70
70294;DHT22;74367;35.280;-77.632;2024-02-26T08:24:51;6.02;85.07
70294;DHT22;74367;35.280;-77.632;2024-02-26T08:27:17;5.82;85.66
70294;DHT22;74367;35.280;-77.632;2024-02-26T08:29:43;5.90;86.66
70294;DHT22;74367;35.280;-77.632;2024-02-26T08:32:09;6.13;84.77
70294;DHT22;74367;35.280;-77.632;2024-02-26T08:34:35;6.21;84.26
70294;DHT22;74367;35.280;-77.632;2024-02-26T08:37:02;6.18;84.95
70294;DHT22;74367;35.280;-77.632;2024-02-26T08:39:28;5.86;85.73
70294;DHT22;74367;35.280;-77.632;2024-02-26T08:41:53;5.87;85.76
70294;DHT22;74367;35.280;-77.632;2024-02-26T08:44:19;5.94;86.05
70294;DHT22;74367;35.280;-77.632;2024-02-26T08:46:45;5.79;86.26
70294;DHT22;74367;35.280;-77.632;2024-02-26T08:49:11;5.34;87.97
70294;DHT22;74367;35.280;-77.632;2024-02-26T08:51:44;5.67;87.46
70294;DHT22;74367;35.280;-77.632;2024-02-26T08:54:10;5.76;86.87
70294;DHT22;74367;35.280;-77.632;2024-02-26T08:56:36;5.97;86.53
70294;DHT22;74367;35.280;-77.632;2024-02-26T08:59:02;5.93;86.07
70294;DHT22;74367;35.280;-77.632;2024-02-26T09:01:32;6.00;86.00
70294;DHT22;74367;35.280;-77.632;2024-02-26T09:03:58;6.02;86.03
70294;DHT22;74367;35.280;-77.632;2024-02-26T09:06:24;5.79;86.31
70294;DHT22;74367;35.280;-77.632;2024-02-26T09:08:50;5.73;86.74
70294;DHT22;74367;35.280;-77.632;2024-02-26T09:11:16;5.52;86.88
70294;DHT22;74367;35.280;-77.632;2024-02-26T09:13:42;5.69;86.66
70294;DHT22;74367;35.280;-77.632;2024-02-26T09:16:08;5.67;86.65
70294;DHT22;74367;35.280;-77.632;2024-02-26T09:18:34;5.48;87.28
70294;DHT22;74367;35.280;-77.632;2024-02-26T09:21:04;5.58;87.26
70294;DHT22;74367;35.280;-77.632;2024-02-26T09:23:31;5.34;87.29
70294;DHT22;74367;35.280;-77.632;2024-02-26T09:25:58;5.32;87.19
70294;DHT22;74367;35.280;-77.632;2024-02-26T09:28:24;5.39;88.44
70294;DHT22;74367;35.280;-77.632;2024-02-26T09:30:50;5.48;87.83
70294;DHT22;74367;35.280;-77.632;2024-02-26T09:33:16;5.42;88.04
70294;DHT22;74367;35.280;-77.632;2024-02-26T09:35:42;5.45;87.89
70294;DHT22;74367;35.280;-77.632;2024-02-26T09:38:08;5.41;88.16
70294;DHT22;74367;35.280;-77.632;2024-02-26T09:40:34;5.62;87.45
70294;DHT22;74367;35.280;-77.632;2024-02-26T09:43:04;5.51;88.33
70294;DHT22;74367;35.280;-77.632;2024-02-26T09:45:32;5.08;89.13
70294;DHT22;74367;35.280;-77.632;2024-02-26T09:47:59;5.36;88.87
70294;DHT22;74367;35.280;-77.632;2024-02-26T09:50:26;5.23;88.23
70294;DHT22;74367;35.280;-77.632;2024-02-26T09:52:52;5.18;88.25
70294;DHT22;74367;35.280;-77.632;2024-02-26T09:55:20;5.18;88.46
70294;DHT22;74367;35.280;-77.632;2024-02-26T09:57:46;5.34;88.14
70294;DHT22;74367;35.280;-77.632;2024-02-26T10:00:21;5.41;88.31
70294;DHT22;74367;35.280;-77.632;2024-02-26T10:02:48;5.41;87.81
70294;DHT22;74367;35.280;-77.632;2024-02-26T10:05:18;5.35;88.40
70294;DHT22;74367;35.280;-77.632;2024-02-26T10:07:47;5.48;88.21
70294;DHT22;74367;35.280;-77.632;2024-02-26T10:10:20;5.65;87.50
70294;DHT22;74367;35.280;-77.632;2024-02-26T10:12:47;5.39;88.33
70294;DHT22;74367;35.280;-77.632;2024-02-26T10:15:13;5.24;89.21
70294;DHT22;74367;35.280;-77.632;2024-02-26T10:17:39;5.38;88.85
70294;DHT22;74367;35.280;-77.632;2024-02-26T10:20:19;5.14;88.76
70294;DHT22;74367;35.280;-77.632;2024-02-26T10:22:47;4.91;90.43
70294;DHT22;74367;35.280;-77.632;2024-02-26T10:25:14;5.07;90.80
70294;DHT22;74367;35.280;-77.632;2024-02-26T10:27:43;4.86;90.66
70294;DHT22;74367;35.280;-77.632;2024-02-26T10:30:21;4.93;91.25
70294;DHT22;74367;35.280;-77.632;2024-02-26T10:32:49;5.32;90.39
70294;DHT22;74367;35.280;-77.632;2024-02-26T10:35:16;5.27;90.25
70294;DHT22;74367;35.280;-77.632;2024-02-26T10:37:43;5.21;90.01
70294;DHT22;74367;35.280;-77.632;2024-02-26T10:40:16;5.21;90.42
70294;DHT22;74367;35.280;-77.632;2024-02-26T10:42:43;5.10;90.68
70294;DHT22;74367;35.280;-77.632;2024-02-26T10:45:11;5.23;90.98
70294;DHT22;74367;35.280;-77.632;2024-02-26T10:47:37;5.32;89.87
70294;DHT22;74367;35.280;-77.632;2024-02-26T10:50:05;5.41;90.18
70294;DHT22;74367;35.280;-77.632;2024-02-26T10:52:36;5.34;89.95
70294;DHT22;74367;35.280;-77.632;2024-02-26T10:55:04;5.20;90.44
70294;DHT22;74367;35.280;-77.632;2024-02-26T10:57:39;5.07;91.10
70294;DHT22;74367;35.280;-77.632;2024-02-26T11:00:06;5.39;90.58
70294;DHT22;74367;35.280;-77.632;2024-02-26T11:02:33;5.76;89.67
70294;DHT22;74367;35.280;-77.632;2024-02-26T11:05:02;5.83;89.31
70294;DHT22;74367;35.280;-77.632;2024-02-26T11:07:30;5.99;88.73
70294;DHT22;74367;35.280;-77.632;2024-02-26T11:09:59;5.86;89.21
70294;DHT22;74367;35.280;-77.632;2024-02-26T11:12:51;5.58;90.10
70294;DHT22;74367;35.280;-77.632;2024-02-26T11:15:18;5.76;90.11
70294;DHT22;74367;35.280;-77.632;2024-02-26T11:17:46;5.89;89.83
70294;DHT22;74367;35.280;-77.632;2024-02-26T11:20:14;5.83;89.51
70294;DHT22;74367;35.280;-77.632;2024-02-26T11:22:40;5.83;89.62
70294;DHT22;74367;35.280;-77.632;2024-02-26T11:25:07;5.38;90.63
70294;DHT22;74367;35.280;-77.632;2024-02-26T11:27:45;5.44;91.07
70294;DHT22;74367;35.280;-77.632;2024-02-26T11:30:13;5.39;91.22
70294;DHT22;74367;35.280;-77.632;2024-02-26T11:32:44;5.32;91.25
70294;DHT22;74367;35.280;-77.632;2024-02-26T11:35:12;5.59;91.04
70294;DHT22;74367;35.280;-77.632;2024-02-26T11:37:41;5.58;90.73
70294;DHT22;74367;35.280;-77.632;2024-02-26T11:40:11;5.80;90.36
70294;DHT22;74367;35.280;-77.632;2024-02-26T11:42:45;5.92;89.60
70294;DHT22;74367;35.280;-77.632;2024-02-26T11:48:14;5.44;91.42
70294;DHT22;74367;35.280;-77.632;2024-02-26T11:50:42;5.30;92.20
70294;DHT22;74367;35.280;-77.632;2024-02-26T11:58:44;5.94;90.66
70294;DHT22;74367;35.280;-77.632;2024-02-26T12:04:05;5.93;89.51
70294;DHT22;74367;35.280;-77.632;2024-02-26T12:06:47;5.70;89.94
70294;DHT22;74367;35.280;-77.632;2024-02-26T12:09:16;5.60;90.67
70294;DHT22;74367;35.280;-77.632;2024-02-26T12:11:56;5.42;91.39
70294;DHT22;74367;35.280;-77.632;2024-02-26T12:14:26;5.48;91.40
70294;DHT22;74367;35.280;-77.632;2024-02-26T12:16:53;5.56;91.29
70294;DHT22;74367;35.280;-77.632;2024-02-26T12:19:21;5.63;90.83
70294;DHT22;74367;35.280;-77.632;2024-02-26T12:21:52;5.76;90.90
70294;DHT22;74367;35.280;-77.632;2024-02-26T12:24:19;5.76;90.72
70294;DHT22;74367;35.280;-77.632;2024-02-26T12:26:46;5.73;91.34
70294;DHT22;74367;35.280;-77.632;2024-02-26T12:29:12;5.76;91.07
70294;DHT22;74367;35.280;-77.632;2024-02-26T12:31:40;5.83;91.03
70294;DHT22;74367;35.280;-77.632;2024-02-26T12:34:07;5.93;90.50
70294;DHT22;74367;35.280;-77.632;2024-02-26T12:36:35;5.80;91.25
70294;DHT22;74367;35.280;-77.632;2024-02-26T12:39:03;5.86;91.00
70294;DHT22;74367;35.280;-77.632;2024-02-26T12:41:32;6.10;90.21
70294;DHT22;74367;35.280;-77.632;2024-02-26T12:43:59;6.21;90.52
70294;DHT22;74367;35.280;-77.632;2024-02-26T12:46:27;6.25;90.01
70294;DHT22;74367;35.280;-77.632;2024-02-26T12:48:56;6.41;89.90
70294;DHT22;74367;35.280;-77.632;2024-02-26T12:51:26;6.44;89.02
70294;DHT22;74367;35.280;-77.632;2024-02-26T12:53:56;6.55;89.72
70294;DHT22;74367;35.280;-77.632;2024-02-26T12:56:22;6.68;89.28
70294;DHT22;74367;35.280;-77.632;2024-02-26T12:58:50;6.85;88.68
70294;DHT22;74367;35.280;-77.632;2024-02-26T13:01:19;6.61;89.75
70294;DHT22;74367;35.280;-77.632;2024-02-26T13:03:47;6.74;89.29
70294;DHT22;74367;35.280;-77.632;2024-02-26T13:06:13;6.96;88.92
70294;DHT22;74367;35.280;-77.632;2024-02-26T13:08:40;7.03;88.33
70294;DHT22;74367;35.280;-77.632;2024-02-26T13:11:06;7.30;87.41
70294;DHT22;74367;35.280;-77.632;2024-02-26T13:13:36;7.77;85.91
70294;DHT22;74367;35.280;-77.632;2024-02-26T13:16:09;8.98;81.18
70294;DHT22;74367;35.280;-77.632;2024-02-26T13:18:36;8.71;81.85
70294;DHT22;74367;35.280;-77.632;2024-02-26T13:21:15;8.51;82.56
70294;DHT22;74367;35.280;-77.632;2024-02-26T13:23:42;8.42;82.73
70294;DHT22;74367;35.280;-77.632;2024-02-26T13:26:11;8.39;82.78
70294;DHT22;74367;35.280;-77.632;2024-02-26T13:28:37;8.46;82.96
70294;DHT22;74367;35.280;-77.632;2024-02-26T13:31:04;8.36;84.17
70294;DHT22;74367;35.280;-77.632;2024-02-26T13:33:33;8.53;82.94
70294;DHT22;74367;35.280;-77.632;2024-02-26T13:35:59;8.56;82.15
70294;DHT22;74367;35.280;-77.632;2024-02-26T13:38:27;8.78;82.19
70294;DHT22;74367;35.280;-77.632;2024-02-26T13:40:54;9.07;82.13
70294;DHT22;74367;35.280;-77.632;2024-02-26T13:43:20;9.14;81.02
70294;DHT22;74367;35.280;-77.632;2024-02-26T13:45:47;9.08;80.90
70294;DHT22;74367;35.280;-77.632;2024-02-26T13:48:13;9.19;80.06
70294;DHT22;74367;35.280;-77.632;2024-02-26T13:50:40;9.21;79.30
70294;DHT22;74367;35.280;-77.632;2024-02-26T13:53:09;9.29;80.34
70294;DHT22;74367;35.280;-77.632;2024-02-26T13:55:35;9.36;79.04
70294;DHT22;74367;35.280;-77.632;2024-02-26T13:58:02;9.70;79.09
70294;DHT22;74367;35.280;-77.632;2024-02-26T14:00:29;9.79;77.78
70294;DHT22;74367;35.280;-77.632;2024-02-26T14:02:58;9.91;77.54
70294;DHT22;74367;35.280;-77.632;2024-02-26T14:05:24;10.07;76.75
70294;DHT22;74367;35.280;-77.632;2024-02-26T14:07:50;10.12;74.72
70294;DHT22;74367;35.280;-77.632;2024-02-26T14:10:16;10.14;73.91
70294;DHT22;74367;35.280;-77.632;2024-02-26T14:12:42;10.24;71.45
70294;DHT22;74367;35.280;-77.632;2024-02-26T14:15:09;10.25;71.26
70294;DHT22;74367;35.280;-77.632;2024-02-26T14:17:36;10.28;71.91
70294;DHT22;74367;35.280;-77.632;2024-02-26T14:20:02;10.25;71.55
70294;DHT22;74367;35.280;-77.632;2024-02-26T14:22:28;10.32;72.09
70294;DHT22;74367;35.280;-77.632;2024-02-26T14:24:56;10.60;72.37
70294;DHT22;74367;35.280;-77.632;2024-02-26T14:27:22;10.86;72.81
70294;DHT22;74367;35.280;-77.632;2024-02-26T14:29:49;12.63;66.42
70294;DHT22;74367;35.280;-77.632;2024-02-26T14:32:15;13.32;64.29
70294;DHT22;74367;35.280;-77.632;2024-02-26T14:34:41;13.19;61.72
70294;DHT22;74367;35.280;-77.632;2024-02-26T14:37:07;12.36;66.28
70294;DHT22;74367;35.280;-77.632;2024-02-26T14:39:33;11.67;64.03
70294;DHT22;74367;35.280;-77.632;2024-02-26T14:41:59;11.68;64.27
70294;DHT22;74367;35.280;-77.632;2024-02-26T14:44:26;11.61;66.97
70294;DHT22;74367;35.280;-77.632;2024-02-26T14:46:52;11.55;63.20
70294;DHT22;74367;35.280;-77.632;2024-02-26T14:49:18;11.68;62.83
70294;DHT22;74367;35.280;-77.632;2024-02-26T14:51:44;11.89;62.37
70294;DHT22;74367;35.280;-77.632;2024-02-26T14:54:14;11.74;59.62
70294;DHT22;74367;35.280;-77.632;2024-02-26T14:56:40;11.85;61.21
70294;DHT22;74367;35.280;-77.632;2024-02-26T14:59:06;11.78;61.31
70294;DHT22;74367;35.280;-77.632;2024-02-26T15:01:32;11.86;63.09
70294;DHT22;74367;35.280;-77.632;2024-02-26T15:03:59;12.15;62.71
70294;DHT22;74367;35.280;-77.632;2024-02-26T15:06:25;12.38;60.81
70294;DHT22;74367;35.280;-77.632;2024-02-26T15:08:52;12.40;61.98
70294;DHT22;74367;35.280;-77.632;2024-02-26T15:11:18;12.16;61.06
70294;DHT22;74367;35.280;-77.632;2024-02-26T15:13:44;12.23;62.71
70294;DHT22;74367;35.280;-77.632;2024-02-26T15:16:20;12.34;62.87
70294;DHT22;74367;35.280;-77.632;2024-02-26T15:18:48;12.50;61.51
70294;DHT22;74367;35.280;-77.632;2024-02-26T15:21:14;12.69;61.78
70294;DHT22;74367;35.280;-77.632;2024-02-26T15:23:43;13.14;59.82
70294;DHT22;74367;35.280;-77.632;2024-02-26T15:26:10;13.49;58.86